createdAt,value
2018-04-11T00:02:00.326Z,51.63
2018-04-11T00:06:51.348Z,51.86
2018-04-11T00:11:42.340Z,51.92
2018-04-11T00:16:33.599Z,51.95
2018-04-11T00:21:24.664Z,52.05
2018-04-11T00:26:16.440Z,52.22
2018-04-11T00:31:07.495Z,52.30
2018-04-11T00:35:58.528Z,52.49
2018-04-11T00:40:49.536Z,52.68
2018-04-11T00:45:41.366Z,52.74
2018-04-11T00:50:32.392Z,52.86
2018-04-11T00:55:23.448Z,53.05
2018-04-11T01:00:15.397Z,53.17
2018-04-11T01:05:07.151Z,53.32
2018-04-11T01:09:58.193Z,53.55
2018-04-11T01:14:49.219Z,53.68
2018-04-11T01:19:40.329Z,53.80
2018-04-11T01:24:31.357Z,53.88
2018-04-11T01:29:22.369Z,53.93
2018-04-11T01:34:13.436Z,54.15
2018-04-11T01:39:04.448Z,54.49
2018-04-11T01:43:55.560Z,54.74
2018-04-11T01:48:46.563Z,55.06
2018-04-11T01:53:38.345Z,55.11
2018-04-11T01:58:29.367Z,55.52
2018-04-11T02:03:20.528Z,55.92
2018-04-11T02:08:11.626Z,56.01
2018-04-11T02:13:02.662Z,56.21
2018-04-11T02:17:53.681Z,56.29
2018-04-11T02:22:44.691Z,56.55
2018-04-11T02:27:35.741Z,56.53
2018-04-11T02:32:26.755Z,56.82
2018-04-11T02:37:17.775Z,56.91
2018-04-11T02:42:08.811Z,57.21
2018-04-11T02:46:59.838Z,57.31
2018-04-11T02:51:50.856Z,57.38
2018-04-11T02:56:41.899Z,57.42
2018-04-11T03:01:33.680Z,57.49
2018-04-11T03:06:24.745Z,57.51
2018-04-11T03:11:15.777Z,57.36
2018-04-11T03:16:06.839Z,57.54
2018-04-11T03:20:57.870Z,57.62
2018-04-11T03:25:49.000Z,57.58
2018-04-11T03:30:40.084Z,57.60
2018-04-11T03:35:31.104Z,57.72
2018-04-11T03:40:22.144Z,57.63
2018-04-11T03:45:13.920Z,57.58
2018-04-11T03:50:05.064Z,57.44
2018-04-11T03:54:56.079Z,57.48
2018-04-11T03:59:47.105Z,57.62
2018-04-11T04:04:38.161Z,57.78
2018-04-11T04:09:29.180Z,57.68
2018-04-11T04:14:38.817Z,57.60
2018-04-11T04:19:48.693Z,57.50
2018-04-11T04:24:39.918Z,57.76
2018-04-11T04:29:30.926Z,57.74
2018-04-11T04:34:21.971Z,57.83
2018-04-11T04:39:13.000Z,57.75
2018-04-11T04:44:04.799Z,57.86
2018-04-11T04:48:55.839Z,57.81
2018-04-11T04:53:46.967Z,58.04
2018-04-11T04:58:38.011Z,58.13
2018-04-11T05:03:29.171Z,58.17
2018-04-11T05:08:20.964Z,58.42
2018-04-11T05:13:12.011Z,58.30
2018-04-11T05:18:03.029Z,58.20
2018-04-11T05:22:54.080Z,58.41
2018-04-11T05:27:45.929Z,58.33
2018-04-11T05:32:37.007Z,58.22
2018-04-11T05:37:28.033Z,58.15
2018-04-11T05:42:19.092Z,58.11
2018-04-11T05:47:10.870Z,58.27
2018-04-11T05:52:01.935Z,58.17
2018-04-11T05:56:53.754Z,58.19
2018-04-11T06:01:44.959Z,58.49
2018-04-11T06:06:35.976Z,59.51
2018-04-11T06:11:27.056Z,60.25
2018-04-11T06:16:18.093Z,60.23
2018-04-11T06:21:09.945Z,60.24
2018-04-11T06:26:01.740Z,59.82
2018-04-11T06:30:52.750Z,59.88
2018-04-11T06:35:43.854Z,59.33
2018-04-11T06:40:34.902Z,59.27
2018-04-11T06:45:26.105Z,58.47
2018-04-11T06:50:17.203Z,57.60
2018-04-11T06:55:09.034Z,56.08
2018-04-11T07:00:00.792Z,52.95
2018-04-11T07:04:52.541Z,50.47
2018-04-11T07:09:43.607Z,49.67
2018-04-11T07:14:34.653Z,47.19
2018-04-11T07:19:25.760Z,46.38
2018-04-11T07:24:16.795Z,44.47
2018-04-11T07:29:07.918Z,41.52
2018-04-11T07:33:58.947Z,40.49
2018-04-11T07:38:50.045Z,39.53
2018-04-11T07:43:41.081Z,38.22
2018-04-11T07:48:32.161Z,37.80
2018-04-11T07:53:23.180Z,36.56
2018-04-11T07:58:14.237Z,36.71
2018-04-11T08:03:05.407Z,36.07
2018-04-11T08:07:57.184Z,36.23
2018-04-11T08:12:48.219Z,35.98
2018-04-11T08:17:39.244Z,35.94
2018-04-11T08:22:30.525Z,35.78
2018-04-11T08:27:22.316Z,35.37
2018-04-11T08:32:13.344Z,35.60
2018-04-11T08:37:04.390Z,35.78
2018-04-11T08:41:55.511Z,35.42
2018-04-11T08:46:46.547Z,35.17
2018-04-11T08:51:37.680Z,35.08
2018-04-11T08:56:29.505Z,34.78
2018-04-11T09:01:21.584Z,34.26
2018-04-11T09:06:13.524Z,34.62
2018-04-11T09:11:05.460Z,34.58
2018-04-11T09:20:55.432Z,33.64
2018-04-11T09:25:46.459Z,32.90
2018-04-11T09:30:37.483Z,32.18
2018-04-11T09:35:28.560Z,31.86
2018-04-11T09:40:19.637Z,31.56
2018-04-11T09:45:10.692Z,31.71
2018-04-11T09:50:01.713Z,31.68
2018-04-11T09:54:52.755Z,31.68
2018-04-11T09:59:44.843Z,31.68
2018-04-11T10:04:35.939Z,31.43
2018-04-11T10:09:27.713Z,31.60
2018-04-11T10:14:18.761Z,30.88
2018-04-11T10:19:10.816Z,31.07
2018-04-11T10:29:29.239Z,30.21
2018-04-11T10:34:20.333Z,29.95
2018-04-11T10:39:11.435Z,29.51
2018-04-11T10:44:02.509Z,29.55
2018-04-11T10:48:53.590Z,29.79
2018-04-11T10:53:44.652Z,29.47
2018-04-11T10:58:35.796Z,29.54
2018-04-11T11:03:26.855Z,29.74
2018-04-11T11:08:17.920Z,30.06
2018-04-11T11:13:08.947Z,30.25
2018-04-11T11:17:59.996Z,30.50
2018-04-11T11:22:51.891Z,30.29
2018-04-11T11:27:43.627Z,30.08
2018-04-11T11:32:34.853Z,30.57
2018-04-11T11:37:26.109Z,30.18
2018-04-11T11:42:17.227Z,30.36
2018-04-11T11:47:08.265Z,30.23
2018-04-11T11:51:59.463Z,30.37
2018-04-11T11:56:50.560Z,30.65
2018-04-11T12:01:41.679Z,30.48
2018-04-11T12:06:32.691Z,30.22
2018-04-11T12:11:24.446Z,30.37
2018-04-11T12:16:15.531Z,30.54
2018-04-11T12:21:06.565Z,31.13
2018-04-11T12:25:58.324Z,30.56
2018-04-11T12:30:50.164Z,30.48
2018-04-11T12:35:41.955Z,30.84
2018-04-11T12:40:33.031Z,31.12
2018-04-11T12:45:24.880Z,31.77
2018-04-11T12:50:16.657Z,31.82
2018-04-11T12:55:07.730Z,31.77
2018-04-11T12:59:59.629Z,31.61
2018-04-11T13:04:51.527Z,31.47
2018-04-11T13:09:43.477Z,31.82
2018-04-11T13:14:35.369Z,32.20
2018-04-11T13:19:26.462Z,32.51
2018-04-11T13:24:17.517Z,32.81
2018-04-11T13:29:08.608Z,33.08
2018-04-11T13:33:59.648Z,33.19
2018-04-11T13:38:50.655Z,33.20
2018-04-11T13:43:41.693Z,33.58
2018-04-11T13:48:32.772Z,33.26
2018-04-11T13:53:24.569Z,33.67
2018-04-11T13:58:15.602Z,33.95
2018-04-11T14:03:06.599Z,33.99
2018-04-11T14:07:57.735Z,33.64
2018-04-11T14:12:48.750Z,33.61
2018-04-11T14:17:39.817Z,34.07
2018-04-11T14:22:30.849Z,34.11
2018-04-11T14:27:22.622Z,33.83
2018-04-11T14:32:13.676Z,33.96
2018-04-11T14:37:04.789Z,33.95
2018-04-11T14:41:55.816Z,34.08
2018-04-11T14:46:46.883Z,34.72
2018-04-11T14:51:38.721Z,35.07
2018-04-11T14:56:30.475Z,35.17
2018-04-11T15:01:22.322Z,35.36
2018-04-11T15:06:14.112Z,35.87
2018-04-11T15:11:05.208Z,36.27
2018-04-11T15:15:56.302Z,36.68
2018-04-11T15:20:48.085Z,36.71
2018-04-11T15:25:39.154Z,36.96
2018-04-11T15:30:30.932Z,37.10
2018-04-11T15:35:22.729Z,37.19
2018-04-11T15:40:13.788Z,37.51
2018-04-11T15:45:04.819Z,37.76
2018-04-11T15:49:55.892Z,37.86
2018-04-11T15:54:46.942Z,38.10
2018-04-11T15:59:38.032Z,38.72
2018-04-11T16:04:29.100Z,38.99
2018-04-11T16:09:20.922Z,39.16
2018-04-11T16:14:12.013Z,39.54
2018-04-11T16:19:03.090Z,39.90
2018-04-11T16:23:54.967Z,40.33
2018-04-11T16:28:46.047Z,40.71
2018-04-11T16:33:37.830Z,41.03
2018-04-11T16:38:28.906Z,41.24
2018-04-11T16:43:19.983Z,41.46
2018-04-11T16:48:11.030Z,41.85
2018-04-11T16:53:02.080Z,41.87
2018-04-11T16:57:53.124Z,42.16
2018-04-11T17:02:44.912Z,42.36
2018-04-11T17:07:36.780Z,42.43
2018-04-11T17:12:27.855Z,42.58
2018-04-11T17:17:19.619Z,42.70
2018-04-11T17:22:29.416Z,43.03
2018-04-11T17:27:39.158Z,43.03
2018-04-11T17:32:30.250Z,43.31
2018-04-11T17:37:21.383Z,43.69
2018-04-11T17:42:12.440Z,43.94
2018-04-11T17:47:03.469Z,44.22
2018-04-11T17:51:54.500Z,44.34
2018-04-11T17:56:45.509Z,44.71
2018-04-11T18:01:36.554Z,44.85
2018-04-11T18:06:27.727Z,45.20
2018-04-11T18:11:19.500Z,45.59
2018-04-11T18:16:10.627Z,45.81
2018-04-11T18:21:01.663Z,46.05
2018-04-11T18:25:52.693Z,46.47
2018-04-11T18:30:43.852Z,46.75
2018-04-11T18:35:35.603Z,46.93
2018-04-11T18:40:27.432Z,47.14
2018-04-11T18:45:19.215Z,47.37
2018-04-11T18:50:10.345Z,47.48
2018-04-11T18:55:01.384Z,47.69
2018-04-11T18:59:52.487Z,47.86
2018-04-11T19:04:43.668Z,47.93
2018-04-11T19:09:35.456Z,48.09
2018-04-11T19:14:26.475Z,48.17
2018-04-11T19:19:17.538Z,48.21
2018-04-11T19:24:08.526Z,48.31
2018-04-11T19:28:59.540Z,48.68
2018-04-11T19:33:50.608Z,48.66
2018-04-11T19:38:41.616Z,48.89
2018-04-11T19:43:32.650Z,48.94
2018-04-11T19:48:23.737Z,49.11
2018-04-11T19:53:14.786Z,49.42
2018-04-11T19:58:05.913Z,49.62
2018-04-11T20:02:56.981Z,49.69
2018-04-11T20:07:48.845Z,49.74
2018-04-11T20:12:39.902Z,49.95
2018-04-11T20:17:30.985Z,50.14
2018-04-11T20:22:22.816Z,50.27
2018-04-11T20:27:14.580Z,50.51
2018-04-11T20:32:06.380Z,50.76
2018-04-11T20:36:57.566Z,50.70
2018-04-11T20:41:48.646Z,50.82
2018-04-11T20:46:39.690Z,51.03
2018-04-11T20:51:30.691Z,51.18
2018-04-11T20:56:21.732Z,51.38
2018-04-11T21:01:12.728Z,51.81
2018-04-11T21:06:04.917Z,51.99
2018-04-11T21:10:55.927Z,52.40
2018-04-11T21:15:47.035Z,52.58
2018-04-11T21:20:38.064Z,52.76
2018-04-11T21:25:29.086Z,52.73
2018-04-11T21:30:20.216Z,52.66
2018-04-11T21:35:11.325Z,52.86
2018-04-11T21:40:02.460Z,53.02
2018-04-11T21:44:53.489Z,53.29
2018-04-11T21:49:59.032Z,53.42
2018-04-11T21:54:50.104Z,53.62
2018-04-11T21:59:41.180Z,53.70
2018-04-11T22:04:32.219Z,53.85
2018-04-11T22:09:23.275Z,53.97
2018-04-11T22:14:14.332Z,54.35
2018-04-11T22:19:05.388Z,54.39
2018-04-11T22:23:57.236Z,54.44
2018-04-11T22:28:48.306Z,54.51
2018-04-11T22:33:39.351Z,54.67
2018-04-11T22:38:30.400Z,54.90
2018-04-11T22:43:21.469Z,54.94
2018-04-11T22:48:12.538Z,55.00
2018-04-11T22:53:03.601Z,55.14
2018-04-11T22:57:54.621Z,55.16
2018-04-11T23:02:46.434Z,55.27
2018-04-11T23:07:37.610Z,55.39
2018-04-11T23:12:28.636Z,55.53
2018-04-11T23:17:19.735Z,55.90
2018-04-11T23:22:15.432Z,55.85
2018-04-11T23:27:06.524Z,56.03
2018-04-11T23:31:57.582Z,56.16
2018-04-11T23:36:48.632Z,56.20
2018-04-11T23:41:40.497Z,56.30
2018-04-11T23:46:31.514Z,56.41
2018-04-11T23:51:22.757Z,56.59
2018-04-11T23:56:13.771Z,56.67
